Weather at McCarran International Airport

Public forecast

Using degrees Fahrenheit for public forecast. Weather courtesy of forecast.io.

Current aviation weather report (METAR) for McCarran International Airport

Retrieved 2020/12/03 19:56 UTC (20 minutes ago):

KLAS 031956Z 05004KT 10SM CLR 12/M14 A3039 RMK AO2 SLP291 T01171144

Aviation forecast (TAF) for McCarran International Airport

Retrieved 2020/12/03 18:22 UTC (2 hours ago):

TAF KLAS 031720Z 0318/0424 VRB06KT P6SM SKC FM032000 05007KT P6SM SKC FM040300 21007KT P6SM SKC